sensor_id;sensor_type;location;lat;lon;timestamp;pressure;altitude;pressure_sealevel;temperature;humidity
71970;BME280;59838;52.152;5.436;2023-05-07T00:00:18;101763.34;;;13.89;100.00
71970;BME280;59838;52.152;5.436;2023-05-07T00:02:45;101766.53;;;13.85;100.00
71970;BME280;59838;52.152;5.436;2023-05-07T00:05:12;101768.41;;;13.76;100.00
71970;BME280;59838;52.152;5.436;2023-05-07T00:07:40;101761.94;;;13.72;100.00
71970;BME280;59838;52.152;5.436;2023-05-07T00:10:07;101770.31;;;13.67;100.00
71970;BME280;59838;52.152;5.436;2023-05-07T00:12:34;101769.88;;;13.64;100.00
71970;BME280;59838;52.152;5.436;2023-05-07T00:15:04;101763.81;;;13.63;100.00
71970;BME280;59838;52.152;5.436;2023-05-07T00:17:32;101769.03;;;13.63;100.00
71970;BME280;59838;52.152;5.436;2023-05-07T00:19:59;101764.00;;;13.62;100.00
71970;BME280;59838;52.152;5.436;2023-05-07T00:22:26;101764.16;;;13.60;100.00
71970;BME280;59838;52.152;5.436;2023-05-07T00:24:52;101763.38;;;13.60;100.00
71970;BME280;59838;52.152;5.436;2023-05-07T00:27:19;101767.78;;;13.59;100.00
71970;BME280;59838;52.152;5.436;2023-05-07T00:29:45;101768.13;;;13.56;100.00
71970;BME280;59838;52.152;5.436;2023-05-07T00:32:12;101757.03;;;13.54;100.00
71970;BME280;59838;52.152;5.436;2023-05-07T00:34:38;101760.03;;;13.51;100.00
71970;BME280;59838;52.152;5.436;2023-05-07T00:37:05;101753.09;;;13.43;100.00
71970;BME280;59838;52.152;5.436;2023-05-07T00:39:33;101747.59;;;13.38;100.00
71970;BME280;59838;52.152;5.436;2023-05-07T00:42:00;101756.59;;;13.35;100.00
71970;BME280;59838;52.152;5.436;2023-05-07T00:44:26;101751.72;;;13.32;100.00
71970;BME280;59838;52.152;5.436;2023-05-07T00:46:54;101753.69;;;13.30;100.00
71970;BME280;59838;52.152;5.436;2023-05-07T00:49:22;101742.78;;;13.27;100.00
71970;BME280;59838;52.152;5.436;2023-05-07T00:51:49;101743.94;;;13.24;100.00
71970;BME280;59838;52.152;5.436;2023-05-07T00:54:16;101741.50;;;13.23;100.00
71970;BME280;59838;52.152;5.436;2023-05-07T00:56:42;101737.00;;;13.16;100.00
71970;BME280;59838;52.152;5.436;2023-05-07T00:59:10;101738.00;;;13.15;100.00
71970;BME280;59838;52.152;5.436;2023-05-07T01:01:36;101740.88;;;13.21;100.00
71970;BME280;59838;52.152;5.436;2023-05-07T01:04:03;101739.69;;;13.23;100.00
71970;BME280;59838;52.152;5.436;2023-05-07T01:06:31;101741.97;;;13.26;100.00
71970;BME280;59838;52.152;5.436;2023-05-07T01:08:59;101737.75;;;13.25;100.00
71970;BME280;59838;52.152;5.436;2023-05-07T01:11:26;101735.94;;;13.26;100.00
71970;BME280;59838;52.152;5.436;2023-05-07T01:13:53;101738.38;;;13.27;100.00
71970;BME280;59838;52.152;5.436;2023-05-07T01:16:20;101738.38;;;13.27;100.00
71970;BME280;59838;52.152;5.436;2023-05-07T01:18:46;101736.91;;;13.25;100.00
71970;BME280;59838;52.152;5.436;2023-05-07T01:21:16;101741.50;;;13.23;100.00
71970;BME280;59838;52.152;5.436;2023-05-07T01:23:44;101739.88;;;13.22;100.00
71970;BME280;59838;52.152;5.436;2023-05-07T01:26:11;101744.75;;;13.25;100.00
71970;BME280;59838;52.152;5.436;2023-05-07T01:28:38;101741.16;;;13.26;100.00
71970;BME280;59838;52.152;5.436;2023-05-07T01:31:04;101733.16;;;13.27;100.00
71970;BME280;59838;52.152;5.436;2023-05-07T01:33:34;101737.41;;;13.28;100.00
71970;BME280;59838;52.152;5.436;2023-05-07T01:36:03;101737.94;;;13.24;100.00
71970;BME280;59838;52.152;5.436;2023-05-07T01:38:32;101736.13;;;13.24;100.00
71970;BME280;59838;52.152;5.436;2023-05-07T01:40:59;101742.78;;;13.27;100.00
71970;BME280;59838;52.152;5.436;2023-05-07T01:43:26;101742.78;;;13.27;100.00
71970;BME280;59838;52.152;5.436;2023-05-07T01:45:52;101735.75;;;13.27;100.00
71970;BME280;59838;52.152;5.436;2023-05-07T01:48:19;101741.78;;;13.28;100.00
71970;BME280;59838;52.152;5.436;2023-05-07T01:50:47;101738.38;;;13.27;100.00
71970;BME280;59838;52.152;5.436;2023-05-07T01:53:14;101740.19;;;13.27;100.00
71970;BME280;59838;52.152;5.436;2023-05-07T01:55:41;101746.19;;;13.27;100.00
71970;BME280;59838;52.152;5.436;2023-05-07T01:58:07;101740.19;;;13.27;100.00
71970;BME280;59838;52.152;5.436;2023-05-07T02:00:34;101738.38;;;13.27;100.00
71970;BME280;59838;52.152;5.436;2023-05-07T02:03:00;101736.47;;;13.21;100.00
71970;BME280;59838;52.152;5.436;2023-05-07T02:05:27;101732.78;;;13.15;100.00
71970;BME280;59838;52.152;5.436;2023-05-07T02:07:54;101733.31;;;13.11;100.00
71970;BME280;59838;52.152;5.436;2023-05-07T02:10:21;101742.94;;;13.10;100.00
71970;BME280;59838;52.152;5.436;2023-05-07T02:12:47;101747.16;;;13.11;100.00
71970;BME280;59838;52.152;5.436;2023-05-07T02:15:14;101736.53;;;13.13;100.00
71970;BME280;59838;52.152;5.436;2023-05-07T02:17:58;101747.09;;;13.20;100.00
71970;BME280;59838;52.152;5.436;2023-05-07T02:20:26;101739.88;;;13.22;100.00
71970;BME280;59838;52.152;5.436;2023-05-07T02:22:52;101734.66;;;13.22;100.00
71970;BME280;59838;52.152;5.436;2023-05-07T02:25:19;101733.84;;;13.21;100.00
71970;BME280;59838;52.152;5.436;2023-05-07T02:27:45;101736.66;;;13.20;100.00
71970;BME280;59838;52.152;5.436;2023-05-07T02:30:13;101732.44;;;13.19;100.00
71970;BME280;59838;52.152;5.436;2023-05-07T02:32:40;101733.41;;;13.17;100.00
71970;BME280;59838;52.152;5.436;2023-05-07T02:35:07;101728.53;;;13.14;100.00
71970;BME280;59838;52.152;5.436;2023-05-07T02:37:34;101738.97;;;13.14;100.00
71970;BME280;59838;52.152;5.436;2023-05-07T02:40:01;101746.63;;;13.16;100.00
71970;BME280;59838;52.152;5.436;2023-05-07T02:42:29;101739.44;;;13.18;100.00
71970;BME280;59838;52.152;5.436;2023-05-07T02:44:56;101739.44;;;13.18;100.00
71970;BME280;59838;52.152;5.436;2023-05-07T02:47:22;101751.50;;;13.19;100.00
71970;BME280;59838;52.152;5.436;2023-05-07T02:49:49;101741.06;;;13.19;100.00
71970;BME280;59838;52.152;5.436;2023-05-07T02:52:15;101735.03;;;13.19;100.00
71970;BME280;59838;52.152;5.436;2023-05-07T02:54:42;101739.78;;;13.15;100.00
71970;BME280;59838;52.152;5.436;2023-05-07T02:57:08;101738.34;;;13.12;100.00
71970;BME280;59838;52.152;5.436;2023-05-07T02:59:35;101740.84;;;13.06;100.00
71970;BME280;59838;52.152;5.436;2023-05-07T03:02:01;101735.06;;;12.95;100.00
71970;BME280;59838;52.152;5.436;2023-05-07T03:04:28;101734.50;;;12.85;100.00
71970;BME280;59838;52.152;5.436;2023-05-07T03:06:55;101736.47;;;12.83;100.00
71970;BME280;59838;52.152;5.436;2023-05-07T03:09:21;101729.19;;;12.78;100.00
71970;BME280;59838;52.152;5.436;2023-05-07T03:11:48;101737.97;;;12.77;100.00
71970;BME280;59838;52.152;5.436;2023-05-07T03:14:14;101732.41;;;12.80;100.00
71970;BME280;59838;52.152;5.436;2023-05-07T03:16:41;101738.75;;;12.86;100.00
71970;BME280;59838;52.152;5.436;2023-05-07T03:19:07;101735.41;;;12.92;100.00
71970;BME280;59838;52.152;5.436;2023-05-07T03:21:34;101734.09;;;12.96;100.00
71970;BME280;59838;52.152;5.436;2023-05-07T03:24:01;101728.53;;;12.99;100.00
71970;BME280;59838;52.152;5.436;2023-05-07T03:26:27;101731.94;;;13.00;100.00
71970;BME280;59838;52.152;5.436;2023-05-07T03:28:54;101734.38;;;13.02;100.00
71970;BME280;59838;52.152;5.436;2023-05-07T03:31:21;101725.09;;;12.99;100.00
71970;BME280;59838;52.152;5.436;2023-05-07T03:33:56;101735.06;;;12.95;100.00
71970;BME280;59838;52.152;5.436;2023-05-07T03:36:23;101738.00;;;12.92;100.00
71970;BME280;59838;52.152;5.436;2023-05-07T03:38:50;101733.16;;;12.89;100.00
71970;BME280;59838;52.152;5.436;2023-05-07T03:41:16;101731.38;;;12.90;100.00
71970;BME280;59838;52.152;5.436;2023-05-07T03:43:43;101731.19;;;12.91;100.00
71970;BME280;59838;52.152;5.436;2023-05-07T03:46:09;101732.81;;;12.92;100.00
71970;BME280;59838;52.152;5.436;2023-05-07T03:48:36;101734.59;;;12.92;100.00
71970;BME280;59838;52.152;5.436;2023-05-07T03:51:03;101735.41;;;12.92;100.00
71970;BME280;59838;52.152;5.436;2023-05-07T03:53:29;101732.16;;;12.90;100.00
71970;BME280;59838;52.152;5.436;2023-05-07T03:55:56;101729.75;;;12.89;100.00
71970;BME280;59838;52.152;5.436;2023-05-07T03:58:23;101740.53;;;12.86;100.00
71970;BME280;59838;52.152;5.436;2023-05-07T04:00:49;101744.75;;;12.87;100.00
71970;BME280;59838;52.152;5.436;2023-05-07T04:03:16;101740.06;;;12.82;100.00
71970;BME280;59838;52.152;5.436;2023-05-07T04:05:43;101748.88;;;12.81;100.00
71970;BME280;59838;52.152;5.436;2023-05-07T04:08:10;101746.56;;;12.86;100.00
71970;BME280;59838;52.152;5.436;2023-05-07T04:10:36;101747.19;;;12.88;100.00
71970;BME280;59838;52.152;5.436;2023-05-07T04:13:03;101746.69;;;12.93;100.00
71970;BME280;59838;52.152;5.436;2023-05-07T04:15:29;101745.50;;;12.95;100.00
71970;BME280;59838;52.152;5.436;2023-05-07T04:17:56;101749.72;;;12.96;100.00
71970;BME280;59838;52.152;5.436;2023-05-07T04:20:23;101752.97;;;12.98;100.00
71970;BME280;59838;52.152;5.436;2023-05-07T04:22:49;101764.88;;;13.01;100.00
71970;BME280;59838;52.152;5.436;2023-05-07T04:25:16;101755.84;;;13.04;100.00
71970;BME280;59838;52.152;5.436;2023-05-07T04:27:42;101754.06;;;13.04;100.00
71970;BME280;59838;52.152;5.436;2023-05-07T04:30:09;101755.50;;;13.07;100.00
71970;BME280;59838;52.152;5.436;2023-05-07T04:32:36;101767.56;;;13.08;100.00
71970;BME280;59838;52.152;5.436;2023-05-07T04:35:04;101758.13;;;13.07;100.00
71970;BME280;59838;52.152;5.436;2023-05-07T04:37:32;101761.38;;;13.09;100.00
71970;BME280;59838;52.152;5.436;2023-05-07T04:39:58;101755.78;;;13.12;100.00
71970;BME280;59838;52.152;5.436;2023-05-07T04:42:25;101758.03;;;13.15;100.00
71970;BME280;59838;52.152;5.436;2023-05-07T04:44:53;101759.69;;;13.16;100.00
71970;BME280;59838;52.152;5.436;2023-05-07T04:47:19;101755.09;;;13.18;100.00
71970;BME280;59838;52.152;5.436;2023-05-07T04:49:46;101758.34;;;13.20;100.00
71970;BME280;59838;52.152;5.436;2023-05-07T04:52:12;101770.38;;;13.21;100.00
71970;BME280;59838;52.152;5.436;2023-05-07T04:54:39;101761.94;;;13.19;100.00
71970;BME280;59838;52.152;5.436;2023-05-07T04:57:06;101764.53;;;13.19;100.00
71970;BME280;59838;52.152;5.436;2023-05-07T04:59:32;101773.00;;;13.21;100.00
71970;BME280;59838;52.152;5.436;2023-05-07T05:01:59;101770.38;;;13.21;100.00
71970;BME280;59838;52.152;5.436;2023-05-07T05:04:25;101770.84;;;13.25;100.00
71970;BME280;59838;52.152;5.436;2023-05-07T05:06:52;101767.25;;;13.26;100.00
71970;BME280;59838;52.152;5.436;2023-05-07T05:09:19;101764.28;;;13.29;100.00
71970;BME280;59838;52.152;5.436;2023-05-07T05:11:45;101780.56;;;13.31;100.00
71970;BME280;59838;52.152;5.436;2023-05-07T05:14:12;101768.19;;;13.33;100.00
71970;BME280;59838;52.152;5.436;2023-05-07T05:16:38;101776.66;;;13.35;100.00
71970;BME280;59838;52.152;5.436;2023-05-07T05:19:05;101770.44;;;13.36;100.00
71970;BME280;59838;52.152;5.436;2023-05-07T05:21:31;101768.50;;;13.38;100.00
71970;BME280;59838;52.152;5.436;2023-05-07T05:23:58;101776.75;;;13.42;100.00
71970;BME280;59838;52.152;5.436;2023-05-07T05:26:25;101781.00;;;13.43;100.00
71970;BME280;59838;52.152;5.436;2023-05-07T05:28:52;101774.78;;;13.44;100.00
71970;BME280;59838;52.152;5.436;2023-05-07T05:31:18;101778.00;;;13.46;100.00
71970;BME280;59838;52.152;5.436;2023-05-07T05:33:45;101787.31;;;13.48;100.00
71970;BME280;59838;52.152;5.436;2023-05-07T05:36:11;101785.31;;;13.50;100.00
71970;BME280;59838;52.152;5.436;2023-05-07T05:38:39;101787.75;;;13.52;100.00
71970;BME280;59838;52.152;5.436;2023-05-07T05:41:06;101796.41;;;13.52;100.00
71970;BME280;59838;52.152;5.436;2023-05-07T05:43:33;101801.91;;;13.58;100.00
71970;BME280;59838;52.152;5.436;2023-05-07T05:45:59;101800.72;;;13.60;100.00
71970;BME280;59838;52.152;5.436;2023-05-07T05:48:28;101802.00;;;13.64;100.00
71970;BME280;59838;52.152;5.436;2023-05-07T05:50:55;101801.66;;;13.67;100.00
71970;BME280;59838;52.152;5.436;2023-05-07T05:53:22;101805.50;;;13.71;100.00
71970;BME280;59838;52.152;5.436;2023-05-07T05:55:49;101800.53;;;13.77;100.00
71970;BME280;59838;52.152;5.436;2023-05-07T05:58:15;101809.94;;;13.86;100.00
71970;BME280;59838;52.152;5.436;2023-05-07T06:00:42;101801.72;;;13.89;100.00
71970;BME280;59838;52.152;5.436;2023-05-07T06:03:08;101809.66;;;13.96;100.00
71970;BME280;59838;52.152;5.436;2023-05-07T06:05:35;101813.09;;;13.96;100.00
71970;BME280;59838;52.152;5.436;2023-05-07T06:08:02;101822.97;;;14.01;100.00
71970;BME280;59838;52.152;5.436;2023-05-07T06:10:28;101819.81;;;14.05;100.00
71970;BME280;59838;52.152;5.436;2023-05-07T06:12:56;101825.78;;;14.14;100.00
71970;BME280;59838;52.152;5.436;2023-05-07T06:15:23;101816.75;;;14.17;100.00
71970;BME280;59838;52.152;5.436;2023-05-07T06:17:49;101821.72;;;14.12;100.00
71970;BME280;59838;52.152;5.436;2023-05-07T06:20:16;101815.03;;;14.09;100.00
71970;BME280;59838;52.152;5.436;2023-05-07T06:22:42;101817.47;;;14.11;100.00
71970;BME280;59838;52.152;5.436;2023-05-07T06:25:09;101824.94;;;14.14;100.00
71970;BME280;59838;52.152;5.436;2023-05-07T06:27:35;101823.59;;;14.18;100.00
71970;BME280;59838;52.152;5.436;2023-05-07T06:30:02;101829.72;;;14.25;100.00
71970;BME280;59838;52.152;5.436;2023-05-07T06:32:28;101828.63;;;14.34;100.00
71970;BME280;59838;52.152;5.436;2023-05-07T06:34:55;101819.63;;;14.37;100.00
71970;BME280;59838;52.152;5.436;2023-05-07T06:37:22;101826.63;;;14.36;100.00
71970;BME280;59838;52.152;5.436;2023-05-07T06:39:49;101820.97;;;14.33;100.00
71970;BME280;59838;52.152;5.436;2023-05-07T06:42:15;101831.13;;;14.42;100.00
71970;BME280;59838;52.152;5.436;2023-05-07T06:44:42;101832.84;;;14.50;100.00
71970;BME280;59838;52.152;5.436;2023-05-07T06:47:08;101833.22;;;14.47;100.00
71970;BME280;59838;52.152;5.436;2023-05-07T06:49:35;101831.94;;;14.43;100.00
71970;BME280;59838;52.152;5.436;2023-05-07T06:52:01;101834.38;;;14.44;100.00
71970;BME280;59838;52.152;5.436;2023-05-07T06:54:28;101835.03;;;14.47;100.00
71970;BME280;59838;52.152;5.436;2023-05-07T06:56:55;101830.78;;;14.45;100.00
71970;BME280;59838;52.152;5.436;2023-05-07T06:59:21;101829.97;;;14.45;100.00
71970;BME280;59838;52.152;5.436;2023-05-07T07:01:48;101839.66;;;14.51;100.00
71970;BME280;59838;52.152;5.436;2023-05-07T07:04:14;101836.50;;;14.56;100.00
71970;BME280;59838;52.152;5.436;2023-05-07T07:06:41;101835.72;;;14.55;100.00
71970;BME280;59838;52.152;5.436;2023-05-07T07:09:07;101833.72;;;14.57;100.00
71970;BME280;59838;52.152;5.436;2023-05-07T07:11:34;101832.41;;;14.61;100.00
71970;BME280;59838;52.152;5.436;2023-05-07T07:14:00;101827.22;;;14.68;100.00
71970;BME280;59838;52.152;5.436;2023-05-07T07:16:27;101827.47;;;14.73;100.00
71970;BME280;59838;52.152;5.436;2023-05-07T07:18:54;101832.09;;;14.93;100.00
71970;BME280;59838;52.152;5.436;2023-05-07T07:21:20;101828.81;;;15.06;100.00
71970;BME280;59838;52.152;5.436;2023-05-07T07:23:47;101828.44;;;15.94;100.00
71970;BME280;59838;52.152;5.436;2023-05-07T07:26:13;101828.59;;;16.95;100.00
71970;BME280;59838;52.152;5.436;2023-05-07T07:28:46;101826.75;;;16.89;98.67
71970;BME280;59838;52.152;5.436;2023-05-07T07:31:12;101816.97;;;16.50;98.71
71970;BME280;59838;52.152;5.436;2023-05-07T07:33:39;101833.25;;;16.32;100.00
71970;BME280;59838;52.152;5.436;2023-05-07T07:36:06;101834.63;;;16.27;100.00
71970;BME280;59838;52.152;5.436;2023-05-07T07:38:33;101836.06;;;16.23;100.00
71970;BME280;59838;52.152;5.436;2023-05-07T07:41:00;101833.81;;;16.20;100.00
71970;BME280;59838;52.152;5.436;2023-05-07T07:43:27;101840.69;;;16.21;100.00
71970;BME280;59838;52.152;5.436;2023-05-07T07:45:54;101839.63;;;16.09;100.00
71970;BME280;59838;52.152;5.436;2023-05-07T07:48:20;101840.16;;;15.98;100.00
71970;BME280;59838;52.152;5.436;2023-05-07T07:50:50;101840.38;;;16.03;100.00
71970;BME280;59838;52.152;5.436;2023-05-07T07:53:17;101843.22;;;16.08;100.00
71970;BME280;59838;52.152;5.436;2023-05-07T07:55:45;101847.63;;;16.42;100.00
71970;BME280;59838;52.152;5.436;2023-05-07T07:58:11;101841.94;;;17.07;97.64
71970;BME280;59838;52.152;5.436;2023-05-07T08:00:38;101853.88;;;17.36;96.28
71970;BME280;59838;52.152;5.436;2023-05-07T08:03:04;101855.28;;;17.26;95.34
71970;BME280;59838;52.152;5.436;2023-05-07T08:05:33;101849.63;;;17.15;96.08
71970;BME280;59838;52.152;5.436;2023-05-07T08:07:59;101845.16;;;17.09;95.10
71970;BME280;59838;52.152;5.436;2023-05-07T08:10:26;101851.81;;;16.98;95.71
71970;BME280;59838;52.152;5.436;2023-05-07T08:12:52;101848.72;;;16.75;96.97
71970;BME280;59838;52.152;5.436;2023-05-07T08:15:19;101858.59;;;16.66;96.86
71970;BME280;59838;52.152;5.436;2023-05-07T08:17:46;101855.16;;;16.72;98.03
71970;BME280;59838;52.152;5.436;2023-05-07T08:20:13;101855.97;;;16.79;96.67
71970;BME280;59838;52.152;5.436;2023-05-07T08:22:40;101850.97;;;16.85;97.04
71970;BME280;59838;52.152;5.436;2023-05-07T08:25:07;101855.22;;;16.86;96.97
71970;BME280;59838;52.152;5.436;2023-05-07T08:27:33;101855.97;;;16.79;95.58
71970;BME280;59838;52.152;5.436;2023-05-07T08:30:00;101857.56;;;16.60;96.71
71970;BME280;59838;52.152;5.436;2023-05-07T08:32:27;101861.75;;;16.48;97.63
71970;BME280;59838;52.152;5.436;2023-05-07T08:34:53;101858.31;;;16.41;99.59
71970;BME280;59838;52.152;5.436;2023-05-07T08:37:20;101851.41;;;16.26;99.69
71970;BME280;59838;52.152;5.436;2023-05-07T08:39:46;101852.50;;;16.04;100.00
71970;BME280;59838;52.152;5.436;2023-05-07T08:42:16;101849.22;;;15.95;100.00
71970;BME280;59838;52.152;5.436;2023-05-07T08:44:45;101863.75;;;15.98;100.00
71970;BME280;59838;52.152;5.436;2023-05-07T08:47:13;101864.59;;;16.05;100.00
71970;BME280;59838;52.152;5.436;2023-05-07T08:49:40;101870.50;;;16.14;100.00
71970;BME280;59838;52.152;5.436;2023-05-07T08:52:06;101863.44;;;16.14;100.00
71970;BME280;59838;52.152;5.436;2023-05-07T08:54:36;101862.63;;;16.14;100.00
71970;BME280;59838;52.152;5.436;2023-05-07T08:57:03;101863.25;;;16.16;100.00
71970;BME280;59838;52.152;5.436;2023-05-07T08:59:30;101859.25;;;16.20;100.00
71970;BME280;59838;52.152;5.436;2023-05-07T09:01:56;101864.22;;;16.15;100.00
71970;BME280;59838;52.152;5.436;2023-05-07T09:04:23;101859.00;;;16.15;100.00
71970;BME280;59838;52.152;5.436;2023-05-07T09:06:49;101864.69;;;16.18;100.00
71970;BME280;59838;52.152;5.436;2023-05-07T09:09:17;101865.25;;;16.14;100.00
71970;BME280;59838;52.152;5.436;2023-05-07T09:11:46;101866.47;;;16.18;100.00
71970;BME280;59838;52.152;5.436;2023-05-07T09:14:13;101866.69;;;16.23;100.00
71970;BME280;59838;52.152;5.436;2023-05-07T09:16:40;101856.41;;;16.21;100.00
71970;BME280;59838;52.152;5.436;2023-05-07T09:19:06;101855.97;;;16.18;100.00
71970;BME280;59838;52.152;5.436;2023-05-07T09:21:33;101861.44;;;16.23;100.00
71970;BME280;59838;52.152;5.436;2023-05-07T09:23:59;101863.66;;;16.19;100.00
71970;BME280;59838;52.152;5.436;2023-05-07T09:26:26;101860.00;;;16.14;100.00
71970;BME280;59838;52.152;5.436;2023-05-07T09:28:54;101858.81;;;16.23;100.00
71970;BME280;59838;52.152;5.436;2023-05-07T09:31:21;101863.94;;;16.31;100.00
71970;BME280;59838;52.152;5.436;2023-05-07T09:33:50;101871.78;;;16.31;100.00
71970;BME280;59838;52.152;5.436;2023-05-07T09:36:16;101867.53;;;16.30;100.00
71970;BME280;59838;52.152;5.436;2023-05-07T09:38:43;101868.34;;;16.31;100.00
71970;BME280;59838;52.152;5.436;2023-05-07T09:41:12;101867.13;;;16.26;100.00
71970;BME280;59838;52.152;5.436;2023-05-07T09:43:39;101875.00;;;16.26;100.00
71970;BME280;59838;52.152;5.436;2023-05-07T09:48:37;101875.63;;;16.35;100.00
71970;BME280;59838;52.152;5.436;2023-05-07T09:51:09;101875.81;;;16.34;100.00
71970;BME280;59838;52.152;5.436;2023-05-07T09:53:38;101874.47;;;16.44;100.00
71970;BME280;59838;52.152;5.436;2023-05-07T09:56:06;101872.63;;;16.45;100.00
71970;BME280;59838;52.152;5.436;2023-05-07T09:58:34;101877.47;;;16.41;99.94
71970;BME280;59838;52.152;5.436;2023-05-07T10:01:03;101880.25;;;16.33;99.44
71970;BME280;59838;52.152;5.436;2023-05-07T10:03:30;101878.28;;;16.42;100.00
71970;BME280;59838;52.152;5.436;2023-05-07T10:06:00;101881.13;;;16.47;99.66
71970;BME280;59838;52.152;5.436;2023-05-07T10:08:27;101885.00;;;16.58;99.57
71970;BME280;59838;52.152;5.436;2023-05-07T10:10:54;101887.63;;;16.64;99.17
71970;BME280;59838;52.152;5.436;2023-05-07T10:13:20;101887.25;;;16.74;99.21
71970;BME280;59838;52.152;5.436;2023-05-07T10:15:47;101882.91;;;16.88;98.33
71970;BME280;59838;52.152;5.436;2023-05-07T10:18:15;101876.22;;;16.92;98.26
71970;BME280;59838;52.152;5.436;2023-05-07T10:20:42;101882.72;;;16.96;98.11
71970;BME280;59838;52.152;5.436;2023-05-07T10:23:13;101893.00;;;16.98;97.57
71970;BME280;59838;52.152;5.436;2023-05-07T10:25:41;101893.03;;;17.05;97.80
71970;BME280;59838;52.152;5.436;2023-05-07T10:28:08;101889.00;;;17.15;96.79
71970;BME280;59838;52.152;5.436;2023-05-07T10:33:16;101885.38;;;17.43;96.43
71970;BME280;59838;52.152;5.436;2023-05-07T10:35:46;101887.00;;;17.58;97.30
71970;BME280;59838;52.152;5.436;2023-05-07T10:38:13;101882.75;;;17.57;97.25
71970;BME280;59838;52.152;5.436;2023-05-07T10:40:40;101878.91;;;17.66;95.65
71970;BME280;59838;52.152;5.436;2023-05-07T10:43:06;101885.75;;;17.73;95.63
71970;BME280;59838;52.152;5.436;2023-05-07T10:45:36;101881.13;;;17.76;94.76
71970;BME280;59838;52.152;5.436;2023-05-07T10:48:15;101884.13;;;17.86;94.36
71970;BME280;59838;52.152;5.436;2023-05-07T10:50:45;101883.47;;;18.11;93.14
71970;BME280;59838;52.152;5.436;2023-05-07T10:55:47;101883.00;;;18.72;90.03
71970;BME280;59838;52.152;5.436;2023-05-07T10:58:26;101885.97;;;18.51;90.15
71970;BME280;59838;52.152;5.436;2023-05-07T11:01:01;101881.91;;;18.55;90.00
71970;BME280;59838;52.152;5.436;2023-05-07T11:03:29;101882.09;;;18.60;89.00
71970;BME280;59838;52.152;5.436;2023-05-07T11:08:57;101887.38;;;18.53;90.89
71970;BME280;59838;52.152;5.436;2023-05-07T11:11:49;101874.47;;;18.45;88.56
71970;BME280;59838;52.152;5.436;2023-05-07T11:17:08;101891.38;;;18.62;90.03
71970;BME280;59838;52.152;5.436;2023-05-07T11:19:51;101884.63;;;18.73;88.89
71970;BME280;59838;52.152;5.436;2023-05-07T11:25:00;101884.63;;;18.73;88.52
71970;BME280;59838;52.152;5.436;2023-05-07T11:27:27;101887.06;;;18.75;88.74
71970;BME280;59838;52.152;5.436;2023-05-07T11:29:53;101899.00;;;18.77;89.15
71970;BME280;59838;52.152;5.436;2023-05-07T11:32:30;101896.16;;;18.86;89.28
71970;BME280;59838;52.152;5.436;2023-05-07T11:34:59;101891.59;;;18.99;87.99
71970;BME280;59838;52.152;5.436;2023-05-07T11:37:27;101890.59;;;19.00;90.18
71970;BME280;59838;52.152;5.436;2023-05-07T11:40:06;101882.63;;;19.07;87.66
71970;BME280;59838;52.152;5.436;2023-05-07T11:42:35;101889.06;;;19.18;86.64
71970;BME280;59838;52.152;5.436;2023-05-07T11:45:05;101887.53;;;19.29;88.53
71970;BME280;59838;52.152;5.436;2023-05-07T11:47:35;101886.34;;;19.25;88.48
71970;BME280;59838;52.152;5.436;2023-05-07T11:50:07;101881.50;;;19.47;87.90
71970;BME280;59838;52.152;5.436;2023-05-07T11:52:34;101886.06;;;19.58;86.18
71970;BME280;59838;52.152;5.436;2023-05-07T11:55:02;101892.22;;;19.77;85.21
71970;BME280;59838;52.152;5.436;2023-05-07T11:57:32;101888.56;;;19.78;84.59
71970;BME280;59838;52.152;5.436;2023-05-07T12:00:00;101892.34;;;19.82;86.07
71970;BME280;59838;52.152;5.436;2023-05-07T12:02:28;101881.06;;;19.75;83.67
71970;BME280;59838;52.152;5.436;2023-05-07T12:04:55;101881.47;;;19.72;86.99
71970;BME280;59838;52.152;5.436;2023-05-07T12:07:23;101889.19;;;19.73;84.63
71970;BME280;59838;52.152;5.436;2023-05-07T12:09:50;101889.66;;;19.89;84.71
71970;BME280;59838;52.152;5.436;2023-05-07T12:12:16;101882.03;;;20.18;85.41
71970;BME280;59838;52.152;5.436;2023-05-07T12:14:44;101877.94;;;20.03;82.25
71970;BME280;59838;52.152;5.436;2023-05-07T12:17:13;101883.66;;;20.00;82.99
71970;BME280;59838;52.152;5.436;2023-05-07T12:19:42;101892.66;;;20.30;85.22
71970;BME280;59838;52.152;5.436;2023-05-07T12:22:09;101886.69;;;20.34;83.12
71970;BME280;59838;52.152;5.436;2023-05-07T12:24:43;101882.47;;;20.15;81.53
71970;BME280;59838;52.152;5.436;2023-05-07T12:27:10;101892.16;;;20.21;82.04
71970;BME280;59838;52.152;5.436;2023-05-07T12:29:37;101893.03;;;20.33;81.91
71970;BME280;59838;52.152;5.436;2023-05-07T12:32:06;101891.03;;;20.28;82.40
71970;BME280;59838;52.152;5.436;2023-05-07T12:34:33;101885.06;;;20.70;83.25
71970;BME280;59838;52.152;5.436;2023-05-07T12:37:02;101881.34;;;20.90;82.62
71970;BME280;59838;52.152;5.436;2023-05-07T12:39:29;101882.75;;;21.28;78.99
71970;BME280;59838;52.152;5.436;2023-05-07T12:41:57;101882.69;;;21.70;78.16
71970;BME280;59838;52.152;5.436;2023-05-07T12:44:32;101883.59;;;21.76;75.75
71970;BME280;59838;52.152;5.436;2023-05-07T12:47:01;101888.31;;;21.85;78.51
71970;BME280;59838;52.152;5.436;2023-05-07T12:49:28;101888.19;;;21.68;78.20
71970;BME280;59838;52.152;5.436;2023-05-07T12:51:55;101888.03;;;21.40;75.62
71970;BME280;59838;52.152;5.436;2023-05-07T12:54:33;101886.53;;;21.20;77.34
71970;BME280;59838;52.152;5.436;2023-05-07T12:57:05;101891.72;;;21.15;74.04
71970;BME280;59838;52.152;5.436;2023-05-07T12:59:40;101890.47;;;21.29;76.71